Back to Top

Language: 

My Weather Underground Personal Weather Station Historical Data with Graphs...

Delerius Weather Station Historical Data
Daily Summary for September 9, 2017 Units:  English    Metric   Both
« Previous Day
Next Day »
Daily Weekly Monthly Yearly Custom
  High: Low: Average:
Temperature: 62.2 °F 48.0 °F 54.3 °F
Dew Point: 56.1 °F 46.7 °F 51.3 °F
Humidity: 95 % 74 % 90 %
Wind Speed: 11.0 mph 0.0 mph 3.9 mph
Wind Gust: 21.0 mph - -
Wind:- - West
Pressure: 29.56 in 29.31 in -
Precipitation: 0.17 in    
Historical Graphs
 
 
Tabular Data for September 9, 2017
Time Temperature Dew Point Pressure Wind Wind Speed Wind Gust Humidity Rainfall Rate (Hourly) solar Conditions
00:03 53.2 °F 49.8 °F 29.35 in West 6.0 mph 10.0 mph 88 % 0.00 in 0 W/m2
00:08 53.2 °F 49.8 °F 29.35 in West 5.0 mph 10.0 mph 88 % 0.00 in 0 W/m2
00:13 53.2 °F 49.8 °F 29.35 in West 4.0 mph 8.0 mph 88 % 0.00 in 0 W/m2
00:18 53.2 °F 49.8 °F 29.35 in West 5.0 mph 8.0 mph 88 % 0.00 in 0 W/m2
00:23 53.2 °F 49.8 °F 29.35 in WNW 4.0 mph 7.0 mph 88 % 0.00 in 0 W/m2
00:28 53.2 °F 49.8 °F 29.35 in WNW 4.0 mph 7.0 mph 88 % 0.00 in 0 W/m2
00:33 53.2 °F 49.8 °F 29.35 in WNW 4.0 mph 7.0 mph 88 % 0.00 in 0 W/m2
00:38 53.2 °F 50.1 °F 29.34 in WNW 3.0 mph 7.0 mph 89 % 0.00 in 0 W/m2
00:43 53.2 °F 49.8 °F 29.34 in WNW 4.0 mph 7.0 mph 88 % 0.00 in 0 W/m2
00:48 53.2 °F 49.8 °F 29.35 in WNW 5.0 mph 10.0 mph 88 % 0.00 in 0 W/m2
00:53 53.2 °F 50.1 °F 29.34 in West 6.0 mph 10.0 mph 89 % 0.00 in 0 W/m2
00:58 53.4 °F 50.3 °F 29.34 in West 5.0 mph 9.0 mph 89 % 0.00 in 0 W/m2
01:03 53.2 °F 50.1 °F 29.34 in West 5.0 mph 9.0 mph 89 % 0.00 in 0 W/m2
01:08 53.2 °F 50.4 °F 29.34 in West 5.0 mph 9.0 mph 90 % 0.00 in 0 W/m2
01:13 53.2 °F 50.4 °F 29.34 in WSW 3.0 mph 7.0 mph 90 % 0.00 in 0 W/m2
01:18 53.1 °F 50.2 °F 29.34 in WSW 2.0 mph 6.0 mph 90 % 0.00 in 0 W/m2
01:23 53.1 °F 50.2 °F 29.34 in West 2.0 mph 8.0 mph 90 % 0.00 in 0 W/m2
01:28 52.9 °F 50.0 °F 29.34 in West 4.0 mph 11.0 mph 90 % 0.00 in 0 W/m2
01:33 52.7 °F 49.8 °F 29.34 in West 5.0 mph 11.0 mph 90 % 0.00 in 0 W/m2
01:38 52.5 °F 49.7 °F 29.34 in West 5.0 mph 9.0 mph 90 % 0.00 in 0 W/m2
01:43 52.3 °F 49.5 °F 29.34 in West 4.0 mph 7.0 mph 90 % 0.00 in 0 W/m2
01:48 52.3 °F 49.5 °F 29.34 in West 4.0 mph 7.0 mph 90 % 0.00 in 0 W/m2
01:53 52.2 °F 49.3 °F 29.33 in West 4.0 mph 7.0 mph 90 % 0.00 in 0 W/m2
01:58 52.0 °F 49.1 °F 29.33 in West 4.0 mph 7.0 mph 90 % 0.00 in 0 W/m2
02:03 52.0 °F 49.1 °F 29.33 in West 3.0 mph 6.0 mph 90 % 0.00 in 0 W/m2
02:08 51.8 °F 49.0 °F 29.33 in West 3.0 mph 6.0 mph 90 % 0.00 in 0 W/m2
02:13 51.8 °F 49.3 °F 29.33 in West 4.0 mph 7.0 mph 91 % 0.00 in 0 W/m2
02:18 51.6 °F 49.1 °F 29.33 in West 5.0 mph 8.0 mph 91 % 0.00 in 0 W/m2
02:23 51.6 °F 49.1 °F 29.33 in West 5.0 mph 8.0 mph 91 % 0.00 in 0 W/m2
02:28 51.6 °F 49.1 °F 29.33 in West 4.0 mph 8.0 mph 91 % 0.00 in 0 W/m2
02:33 51.4 °F 48.9 °F 29.33 in WSW 4.0 mph 8.0 mph 91 % 0.00 in 0 W/m2
02:38 51.4 °F 48.9 °F 29.33 in West 3.0 mph 7.0 mph 91 % 0.00 in 0 W/m2
02:43 51.3 °F 48.7 °F 29.33 in West 2.0 mph 7.0 mph 91 % 0.00 in 0 W/m2
02:48 51.1 °F 48.2 °F 29.33 in Calm   2.0 mph 90 % 0.00 in 0 W/m2
02:53 50.7 °F 47.9 °F 29.33 in Calm   2.0 mph 90 % 0.00 in 0 W/m2
02:58 50.5 °F 47.7 °F 29.33 in West 1.0 mph 5.0 mph 90 % 0.00 in 0 W/m2
03:03 50.4 °F 47.8 °F 29.33 in West 2.0 mph 6.0 mph 91 % 0.00 in 0 W/m2
03:08 50.4 °F 47.8 °F 29.33 in West 4.0 mph 8.0 mph 91 % 0.00 in 0 W/m2
03:13 50.4 °F 48.1 °F 29.33 in West 5.0 mph 8.0 mph 92 % 0.00 in 0 W/m2
03:18 50.5 °F 48.3 °F 29.33 in West 6.0 mph 10.0 mph 92 % 0.00 in 0 W/m2
03:23 50.9 °F 48.7 °F 29.33 in West 6.0 mph 10.0 mph 92 % 0.00 in 0 W/m2
03:28 51.1 °F 48.8 °F 29.33 in West 6.0 mph 10.0 mph 92 % 0.00 in 0 W/m2
03:33 51.3 °F 49.0 °F 29.33 in West 7.0 mph 12.0 mph 92 % 0.00 in 0 W/m2
03:38 51.4 °F 49.2 °F 29.33 in West 6.0 mph 12.0 mph 92 % 0.00 in 0 W/m2
03:43 51.6 °F 49.1 °F 29.33 in West 5.0 mph 11.0 mph 91 % 0.00 in 0 W/m2
03:48 51.6 °F 49.1 °F 29.33 in West 5.0 mph 9.0 mph 91 % 0.00 in 0 W/m2
03:53 51.8 °F 49.3 °F 29.33 in West 6.0 mph 9.0 mph 91 % 0.00 in 0 W/m2
03:59 52.0 °F 49.4 °F 29.33 in West 5.0 mph 9.0 mph 91 % 0.01 in 0 W/m2
04:04 52.0 °F 49.4 °F 29.32 in WSW 4.0 mph 8.0 mph 91 % 0.01 in 0 W/m2
04:09 52.0 °F 49.4 °F 29.32 in WSW 4.0 mph 8.0 mph 91 % 0.01 in 0 W/m2
04:14 52.2 °F 49.6 °F 29.33 in WSW 4.0 mph 8.0 mph 91 % 0.01 in 0 W/m2
04:19 52.0 °F 49.4 °F 29.32 in West 3.0 mph 6.0 mph 91 % 0.01 in 0 W/m2
04:21 52.0 °F 49.4 °F 29.32 in West 3.0 mph 6.0 mph 91 % 0.01 in 0 W/m2
04:23 52.0 °F 49.4 °F 29.32 in West 3.0 mph 6.0 mph 91 % 0.01 in 0 W/m2
04:28 52.0 °F 49.4 °F 29.32 in West 4.0 mph 7.0 mph 91 % 0.01 in 0 W/m2
04:33 52.0 °F 49.4 °F 29.32 in West 4.0 mph 7.0 mph 91 % 0.01 in 0 W/m2
04:38 51.8 °F 49.5 °F 29.32 in West 3.0 mph 8.0 mph 92 % 0.01 in 0 W/m2
04:39 51.8 °F 49.5 °F 29.32 in West 3.0 mph 8.0 mph 92 % 0.01 in 0 W/m2
04:44 51.8 °F 49.5 °F 29.32 in West 3.0 mph 8.0 mph 92 % 0.01 in 0 W/m2
04:49 51.8 °F 49.5 °F 29.32 in West 3.0 mph 7.0 mph 92 % 0.01 in 0 W/m2
04:54 51.8 °F 49.5 °F 29.32 in West 3.0 mph 8.0 mph 92 % 0.01 in 0 W/m2
04:59 51.8 °F 49.5 °F 29.32 in West 2.0 mph 8.0 mph 92 % 0.00 in 0 W/m2
05:04 51.8 °F 49.5 °F 29.32 in West 1.0 mph 5.0 mph 92 % 0.00 in 0 W/m2
05:09 51.8 °F 49.5 °F 29.32 in West 2.0 mph 6.0 mph 92 % 0.00 in 0 W/m2
05:14 51.8 °F 49.5 °F 29.32 in West 2.0 mph 7.0 mph 92 % 0.00 in 0 W/m2
05:19 52.0 °F 49.7 °F 29.32 in West 2.0 mph 7.0 mph 92 % 0.00 in 0 W/m2
05:24 52.0 °F 49.7 °F 29.32 in West 2.0 mph 6.0 mph 92 % 0.00 in 0 W/m2
05:29 51.8 °F 49.5 °F 29.32 in West 2.0 mph 6.0 mph 92 % 0.00 in 0 W/m2
05:34 52.0 °F 49.7 °F 29.32 in West 2.0 mph 10.0 mph 92 % 0.00 in 0 W/m2
05:39 52.0 °F 49.7 °F 29.32 in West 4.0 mph 10.0 mph 92 % 0.00 in 0 W/m2
05:44 52.0 °F 49.7 °F 29.32 in West 6.0 mph 10.0 mph 92 % 0.00 in 0 W/m2
05:49 52.2 °F 49.9 °F 29.32 in West 6.0 mph 10.0 mph 92 % 0.00 in 0 W/m2
05:54 52.2 °F 49.9 °F 29.32 in West 6.0 mph 10.0 mph 92 % 0.00 in 0 W/m2
05:59 52.2 °F 49.9 °F 29.31 in West 6.0 mph 10.0 mph 92 % 0.00 in 0 W/m2
06:04 52.3 °F 50.1 °F 29.32 in West 5.0 mph 10.0 mph 92 % 0.00 in 0 W/m2
06:09 52.3 °F 50.1 °F 29.32 in West 5.0 mph 10.0 mph 92 % 0.00 in 0 W/m2
06:14 52.3 °F 50.1 °F 29.32 in West 6.0 mph 10.0 mph 92 % 0.01 in 0 W/m2
06:19 52.3 °F 50.1 °F 29.32 in West 5.0 mph 8.0 mph 92 % 0.02 in 0 W/m2
06:24 52.3 °F 50.1 °F 29.32 in West 5.0 mph 8.0 mph 92 % 0.02 in 0 W/m2
06:29 52.3 °F 50.1 °F 29.32 in West 6.0 mph 9.0 mph 92 % 0.03 in 0 W/m2
06:34 52.3 °F 50.4 °F 29.32 in West 5.0 mph 9.0 mph 93 % 0.03 in 0 W/m2
06:39 52.3 °F 50.4 °F 29.32 in West 4.0 mph 8.0 mph 93 % 0.03 in 0 W/m2
06:44 52.2 °F 50.2 °F 29.32 in West 4.0 mph 9.0 mph 93 % 0.03 in 0 W/m2
06:49 52.2 °F 50.2 °F 29.32 in West 4.0 mph 9.0 mph 93 % 0.05 in 0 W/m2
06:54 52.2 °F 50.2 °F 29.32 in West 4.0 mph 7.0 mph 93 % 0.06 in 7 W/m2
06:59 52.2 °F 50.2 °F 29.32 in WSW 4.0 mph 7.0 mph 93 % 0.06 in 9 W/m2
07:04 52.2 °F 50.2 °F 29.32 in WSW 3.0 mph 8.0 mph 93 % 0.06 in 11 W/m2
07:09 52.2 °F 50.2 °F 29.32 in West 4.0 mph 8.0 mph 93 % 0.06 in 14 W/m2
07:14 52.2 °F 50.5 °F 29.32 in West 4.0 mph 8.0 mph 94 % 0.06 in 16 W/m2
07:19 52.2 °F 50.5 °F 29.32 in West 3.0 mph 7.0 mph 94 % 0.05 in 19 W/m2
07:24 52.2 °F 50.5 °F 29.32 in West 4.0 mph 9.0 mph 94 % 0.04 in 19 W/m2
07:29 52.2 °F 50.5 °F 29.32 in West 5.0 mph 9.0 mph 94 % 0.03 in 21 W/m2
07:34 52.2 °F 50.5 °F 29.32 in West 4.0 mph 7.0 mph 94 % 0.04 in 18 W/m2
07:39 52.2 °F 50.5 °F 29.33 in WSW 4.0 mph 6.0 mph 94 % 0.04 in 16 W/m2
07:44 52.2 °F 50.5 °F 29.32 in WSW 3.0 mph 6.0 mph 94 % 0.05 in 18 W/m2
07:49 52.2 °F 50.5 °F 29.32 in WSW 2.0 mph 5.0 mph 94 % 0.04 in 14 W/m2
07:54 52.2 °F 50.5 °F 29.32 in WSW 2.0 mph 5.0 mph 94 % 0.03 in 16 W/m2
07:59 52.2 °F 50.5 °F 29.32 in WSW 2.0 mph 5.0 mph 94 % 0.03 in 21 W/m2
08:04 52.2 °F 50.5 °F 29.33 in WSW 1.0 mph 4.0 mph 94 % 0.02 in 33 W/m2
08:09 52.2 °F 50.5 °F 29.33 in WSW 2.0 mph 6.0 mph 94 % 0.02 in 44 W/m2
08:14 52.0 °F 50.3 °F 29.33 in WSW 3.0 mph 6.0 mph 94 % 0.02 in 51 W/m2
08:19 52.2 °F 50.8 °F 29.32 in WSW 2.0 mph 5.0 mph 95 % 0.02 in 63 W/m2
08:25 52.2 °F 50.8 °F 29.32 in WSW 1.0 mph 6.0 mph 95 % 0.02 in 76 W/m2
08:30 52.2 °F 50.8 °F 29.33 in WSW 2.0 mph 8.0 mph 95 % 0.02 in 74 W/m2
08:35 52.2 °F 50.8 °F 29.33 in WSW 4.0 mph 10.0 mph 95 % 0.02 in 88 W/m2
08:40 52.3 °F 51.0 °F 29.33 in WSW 6.0 mph 10.0 mph 95 % 0.01 in 84 W/m2
08:45 52.3 °F 50.7 °F 29.33 in WSW 6.0 mph 13.0 mph 94 % 0.01 in 118 W/m2
08:50 52.5 °F 51.1 °F 29.33 in WSW 6.0 mph 13.0 mph 95 % 0.00 in 230 W/m2
08:55 52.9 °F 51.2 °F 29.33 in WSW 5.0 mph 10.0 mph 94 % 0.00 in 229 W/m2
09:00 53.1 °F 51.7 °F 29.33 in WSW 4.0 mph 10.0 mph 95 % 0.01 in 105 W/m2
09:05 53.2 °F 51.6 °F 29.33 in WSW 4.0 mph 7.0 mph 94 % 0.01 in 86 W/m2
09:10 53.2 °F 51.6 °F 29.33 in WSW 4.0 mph 7.0 mph 94 % 0.01 in 104 W/m2
09:15 53.1 °F 51.4 °F 29.33 in WSW 5.0 mph 8.0 mph 94 % 0.01 in 162 W/m2
09:20 53.2 °F 51.6 °F 29.33 in WSW 5.0 mph 8.0 mph 94 % 0.01 in 204 W/m2
09:25 53.4 °F 51.7 °F 29.33 in WSW 4.0 mph 7.0 mph 94 % 0.01 in 236 W/m2
09:30 53.8 °F 52.4 °F 29.33 in WSW 3.0 mph 8.0 mph 95 % 0.01 in 246 W/m2
09:35 54.1 °F 52.7 °F 29.33 in WSW 3.0 mph 8.0 mph 95 % 0.02 in 229 W/m2
09:40 54.3 °F 52.6 °F 29.33 in WSW 4.0 mph 8.0 mph 94 % 0.02 in 158 W/m2
09:45 54.1 °F 52.5 °F 29.33 in WSW 5.0 mph 10.0 mph 94 % 0.02 in 181 W/m2
09:50 54.3 °F 52.6 °F 29.34 in WSW 5.0 mph 10.0 mph 94 % 0.02 in 178 W/m2
09:55 54.3 °F 52.6 °F 29.34 in WSW 5.0 mph 10.0 mph 94 % 0.02 in 162 W/m2
10:00 54.3 °F 52.6 °F 29.34 in West 6.0 mph 11.0 mph 94 % 0.01 in 105 W/m2
10:05 54.5 °F 52.5 °F 29.34 in West 7.0 mph 11.0 mph 93 % 0.01 in 162 W/m2
10:10 54.5 °F 52.5 °F 29.34 in WSW 6.0 mph 9.0 mph 93 % 0.01 in 199 W/m2
10:15 54.5 °F 52.5 °F 29.34 in WSW 6.0 mph 10.0 mph 93 % 0.01 in 274 W/m2
10:20 54.7 °F 53.0 °F 29.34 in WSW 6.0 mph 12.0 mph 94 % 0.01 in 206 W/m2
10:25 54.9 °F 53.2 °F 29.34 in WSW 6.0 mph 12.0 mph 94 % 0.01 in 279 W/m2
10:30 54.9 °F 52.9 °F 29.34 in WSW 6.0 mph 11.0 mph 93 % 0.01 in 230 W/m2
10:35 54.9 °F 52.9 °F 29.34 in WSW 5.0 mph 9.0 mph 93 % 0.00 in 186 W/m2
10:40 55.0 °F 53.1 °F 29.34 in SW 4.0 mph 8.0 mph 93 % 0.00 in 167 W/m2
10:45 55.2 °F 53.2 °F 29.34 in SW 4.0 mph 7.0 mph 93 % 0.00 in 183 W/m2
10:50 55.2 °F 53.2 °F 29.34 in SW 5.0 mph 7.0 mph 93 % 0.00 in 362 W/m2
10:55 55.8 °F 54.1 °F 29.34 in SW 4.0 mph 7.0 mph 94 % 0.00 in 381 W/m2
11:00 56.1 °F 54.4 °F 29.34 in WSW 6.0 mph 11.0 mph 94 % 0.01 in 633 W/m2
11:05 56.7 °F 54.7 °F 29.34 in West 7.0 mph 11.0 mph 93 % 0.01 in 631 W/m2
11:10 57.6 °F 55.6 °F 29.34 in West 7.0 mph 11.0 mph 93 % 0.01 in 867 W/m2
11:15 58.5 °F 56.1 °F 29.34 in West 6.0 mph 10.0 mph 92 % 0.01 in 707 W/m2
11:20 58.8 °F 55.6 °F 29.33 in West 6.0 mph 10.0 mph 89 % 0.01 in 206 W/m2
11:25 58.6 °F 54.8 °F 29.34 in West 6.0 mph 12.0 mph 87 % 0.01 in 109 W/m2
11:30 58.3 °F 54.1 °F 29.34 in WNW 8.0 mph 14.0 mph 86 % 0.01 in 192 W/m2
11:35 57.7 °F 53.3 °F 29.34 in WNW 9.0 mph 15.0 mph 85 % 0.01 in 267 W/m2
11:40 57.7 °F 53.9 °F 29.34 in West 8.0 mph 15.0 mph 87 % 0.01 in 309 W/m2
11:45 57.7 °F 53.9 °F 29.34 in West 7.0 mph 12.0 mph 87 % 0.01 in 492 W/m2
11:51 57.9 °F 54.4 °F 29.34 in West 7.0 mph 13.0 mph 88 % 0.01 in 450 W/m2
11:56 58.1 °F 53.9 °F 29.34 in West 8.0 mph 15.0 mph 86 % 0.01 in 313 W/m2
12:01 58.1 °F 53.6 °F 29.34 in WNW 9.0 mph 16.0 mph 85 % 0.00 in 345 W/m2
12:06 58.3 °F 53.5 °F 29.34 in WNW 10.0 mph 16.0 mph 84 % 0.00 in 345 W/m2
12:11 58.6 °F 54.1 °F 29.34 in WNW 9.0 mph 16.0 mph 85 % 0.00 in 606 W/m2
12:16 59.2 °F 54.3 °F 29.34 in WNW 8.0 mph 14.0 mph 84 % 0.00 in 745 W/m2
12:21 59.7 °F 54.2 °F 29.34 in West 8.0 mph 13.0 mph 82 % 0.00 in 229 W/m2
12:26 60.1 °F 53.9 °F 29.34 in West 7.0 mph 12.0 mph 80 % 0.00 in 269 W/m2
12:31 60.3 °F 53.7 °F 29.35 in WNW 7.0 mph 15.0 mph 79 % 0.00 in 881 W/m2
12:36 60.8 °F 54.2 °F 29.34 in WNW 8.0 mph 15.0 mph 79 % 0.00 in 995 W/m2
12:41 61.3 °F 53.7 °F 29.34 in West 8.0 mph 15.0 mph 76 % 0.00 in 264 W/m2
12:46 61.7 °F 54.1 °F 29.35 in WNW 8.0 mph 12.0 mph 76 % 0.00 in 981 W/m2
12:51 61.9 °F 53.9 °F 29.35 in WNW 7.0 mph 12.0 mph 75 % 0.00 in 271 W/m2
12:56 61.9 °F 53.5 °F 29.35 in WNW 8.0 mph 13.0 mph 74 % 0.00 in 338 W/m2
13:01 61.7 °F 53.3 °F 29.35 in WNW 9.0 mph 19.0 mph 74 % 0.00 in 234 W/m2
13:06 60.8 °F 52.8 °F 29.36 in WNW 11.0 mph 20.0 mph 75 % 0.00 in 171 W/m2
13:11 59.9 °F 53.0 °F 29.37 in WNW 10.0 mph 20.0 mph 78 % 0.00 in 109 W/m2
13:16 59.2 °F 53.0 °F 29.37 in NW 8.0 mph 16.0 mph 80 % 0.00 in 76 W/m2
13:21 58.6 °F 53.5 °F 29.37 in NW 6.0 mph 16.0 mph 83 % 0.00 in 81 W/m2
13:26 58.3 °F 53.8 °F 29.36 in NW 5.0 mph 9.0 mph 85 % 0.00 in 102 W/m2
13:31 57.9 °F 53.8 °F 29.36 in NW 5.0 mph 9.0 mph 86 % 0.00 in 127 W/m2
13:36 57.6 °F 53.7 °F 29.37 in NW 5.0 mph 8.0 mph 87 % 0.00 in 142 W/m2
13:41 57.4 °F 53.5 °F 29.37 in NW 6.0 mph 12.0 mph 87 % 0.00 in 142 W/m2
13:46 57.0 °F 53.2 °F 29.37 in NW 6.0 mph 12.0 mph 87 % 0.00 in 146 W/m2
13:51 56.8 °F 53.0 °F 29.37 in NNW 5.0 mph 10.0 mph 87 % 0.01 in 98 W/m2
13:56 56.8 °F 53.3 °F 29.38 in NNW 5.0 mph 10.0 mph 88 % 0.01 in 86 W/m2
14:01 56.7 °F 53.1 °F 29.38 in NW 6.0 mph 12.0 mph 88 % 0.01 in 102 W/m2
14:06 56.5 °F 53.0 °F 29.38 in NW 6.0 mph 12.0 mph 88 % 0.01 in 125 W/m2
14:11 56.5 °F 53.6 °F 29.39 in NW 6.0 mph 10.0 mph 90 % 0.02 in 163 W/m2
14:16 56.5 °F 53.6 °F 29.39 in NW 6.0 mph 10.0 mph 90 % 0.02 in 237 W/m2
14:21 56.7 °F 53.8 °F 29.39 in NW 6.0 mph 10.0 mph 90 % 0.02 in 262 W/m2
14:27 56.8 °F 54.2 °F 29.39 in NW 5.0 mph 10.0 mph 91 % 0.02 in 283 W/m2
14:32 57.0 °F 54.1 °F 29.39 in WNW 6.0 mph 10.0 mph 90 % 0.02 in 234 W/m2
14:37 57.0 °F 54.1 °F 29.39 in NW 7.0 mph 14.0 mph 90 % 0.02 in 237 W/m2
14:42 57.2 °F 54.3 °F 29.39 in NW 6.0 mph 14.0 mph 90 % 0.02 in 225 W/m2
14:47 57.4 °F 54.2 °F 29.39 in NW 5.0 mph 10.0 mph 89 % 0.02 in 183 W/m2
14:52 57.4 °F 53.9 °F 29.39 in NW 6.0 mph 10.0 mph 88 % 0.01 in 176 W/m2
14:57 57.4 °F 53.9 °F 29.39 in NW 6.0 mph 10.0 mph 88 % 0.01 in 181 W/m2
15:02 57.4 °F 53.9 °F 29.39 in NW 5.0 mph 10.0 mph 88 % 0.01 in 216 W/m2
15:07 57.6 °F 53.7 °F 29.39 in NW 6.0 mph 10.0 mph 87 % 0.01 in 366 W/m2
15:12 57.9 °F 54.4 °F 29.40 in NW 6.0 mph 10.0 mph 88 % 0.00 in 601 W/m2
15:17 58.5 °F 54.6 °F 29.40 in NW 7.0 mph 13.0 mph 87 % 0.00 in 631 W/m2
15:22 59.2 °F 54.7 °F 29.40 in NW 8.0 mph 13.0 mph 85 % 0.00 in 656 W/m2
15:27 59.7 °F 54.9 °F 29.40 in NW 7.0 mph 12.0 mph 84 % 0.00 in 631 W/m2
15:32 60.4 °F 55.3 °F 29.40 in NW 6.0 mph 10.0 mph 83 % 0.00 in 661 W/m2
15:37 61.2 °F 55.6 °F 29.41 in NW 7.0 mph 12.0 mph 82 % 0.00 in 768 W/m2
15:42 61.5 °F 55.6 °F 29.41 in NW 7.0 mph 15.0 mph 81 % 0.00 in 803 W/m2
15:47 61.9 °F 55.3 °F 29.41 in NW 7.0 mph 15.0 mph 79 % 0.00 in 805 W/m2
15:52 62.1 °F 54.4 °F 29.41 in NNW 6.0 mph 12.0 mph 76 % 0.00 in 420 W/m2
15:57 62.1 °F 54.4 °F 29.41 in NNW 6.0 mph 12.0 mph 76 % 0.00 in 399 W/m2
16:02 62.2 °F 54.2 °F 29.41 in NNW 6.0 mph 12.0 mph 75 % 0.00 in 134 W/m2
16:07 61.3 °F 54.1 °F 29.42 in NNW 8.0 mph 21.0 mph 77 % 0.00 in 21 W/m2
16:12 59.5 °F 53.7 °F 29.43 in NNW 10.0 mph 21.0 mph 81 % 0.03 in 26 W/m2
16:17 57.9 °F 52.8 °F 29.43 in NNW 7.0 mph 18.0 mph 83 % 0.03 in 39 W/m2
16:22 57.0 °F 52.6 °F 29.43 in NNW 6.0 mph 11.0 mph 85 % 0.04 in 67 W/m2
16:27 56.7 °F 52.8 °F 29.43 in NNW 4.0 mph 11.0 mph 87 % 0.04 in 90 W/m2
16:32 56.5 °F 53.0 °F 29.43 in NW 4.0 mph 8.0 mph 88 % 0.04 in 90 W/m2
16:37 56.5 °F 53.3 °F 29.43 in NW 4.0 mph 8.0 mph 89 % 0.04 in 102 W/m2
16:42 56.3 °F 53.4 °F 29.43 in NW 3.0 mph 7.0 mph 90 % 0.04 in 155 W/m2
16:47 56.3 °F 53.4 °F 29.44 in NW 3.0 mph 7.0 mph 90 % 0.04 in 146 W/m2
16:57 56.5 °F 53.9 °F 29.44 in NW 4.0 mph 7.0 mph 91 % 0.04 in 127 W/m2
17:02 56.8 °F 54.5 °F 29.44 in NW 4.0 mph 7.0 mph 92 % 0.04 in 345 W/m2
17:07 57.4 °F 55.1 °F 29.44 in WNW 3.0 mph 7.0 mph 92 % 0.04 in 327 W/m2
17:10 57.7 °F 55.4 °F 29.44 in WNW 4.0 mph 9.0 mph 92 % 0.01 in 322 W/m2
17:15 58.3 °F 55.7 °F 29.44 in WNW 5.0 mph 10.0 mph 91 % 0.01 in 309 W/m2
17:20 58.5 °F 55.2 °F 29.44 in WNW 6.0 mph 10.0 mph 89 % 0.00 in 295 W/m2
17:25 58.8 °F 55.3 °F 29.44 in NW 5.0 mph 11.0 mph 88 % 0.00 in 294 W/m2
17:30 59.2 °F 55.3 °F 29.45 in NW 5.0 mph 11.0 mph 87 % 0.00 in 295 W/m2
17:35 59.4 °F 54.8 °F 29.45 in NW 4.0 mph 10.0 mph 85 % 0.00 in 288 W/m2
17:40 59.7 °F 55.2 °F 29.45 in NW 4.0 mph 9.0 mph 85 % 0.00 in 318 W/m2
17:45 59.9 °F 55.4 °F 29.45 in NW 4.0 mph 9.0 mph 85 % 0.00 in 128 W/m2
17:50 60.1 °F 55.6 °F 29.45 in NW 5.0 mph 10.0 mph 85 % 0.00 in 214 W/m2
17:55 60.1 °F 55.2 °F 29.45 in WNW 4.0 mph 10.0 mph 84 % 0.00 in 137 W/m2
18:00 60.1 °F 55.6 °F 29.46 in WNW 3.0 mph 8.0 mph 85 % 0.00 in 56 W/m2
18:05 59.7 °F 55.2 °F 29.46 in WNW 2.0 mph 8.0 mph 85 % 0.00 in 81 W/m2
18:10 59.4 °F 54.5 °F 29.47 in North 1.0 mph 8.0 mph 84 % 0.00 in 76 W/m2
18:15 59.2 °F 54.3 °F 29.47 in North 1.0 mph 8.0 mph 84 % 0.00 in 77 W/m2
18:20 58.8 °F 54.0 °F 29.47 in North 1.0 mph 5.0 mph 84 % 0.00 in 67 W/m2
18:25 58.6 °F 54.1 °F 29.47 in North 1.0 mph 5.0 mph 85 % 0.00 in 56 W/m2
18:30 58.5 °F 54.0 °F 29.48 in North 2.0 mph 10.0 mph 85 % 0.00 in 63 W/m2
18:35 58.3 °F 53.8 °F 29.48 in North 3.0 mph 10.0 mph 85 % 0.00 in 53 W/m2
18:40 58.1 °F 53.6 °F 29.48 in North 5.0 mph 9.0 mph 85 % 0.00 in 47 W/m2
18:45 57.9 °F 53.4 °F 29.48 in North 5.0 mph 10.0 mph 85 % 0.00 in 33 W/m2
18:50 57.7 °F 53.3 °F 29.48 in North 3.0 mph 10.0 mph 85 % 0.00 in 28 W/m2
18:55 57.6 °F 53.1 °F 29.49 in NNW 3.0 mph 8.0 mph 85 % 0.00 in 30 W/m2
19:00 57.4 °F 52.9 °F 29.49 in NNW 3.0 mph 8.0 mph 85 % 0.00 in 37 W/m2
19:05 57.0 °F 52.6 °F 29.49 in NNW 3.0 mph 8.0 mph 85 % 0.00 in 32 W/m2
19:10 56.8 °F 52.4 °F 29.49 in NNW 3.0 mph 8.0 mph 85 % 0.00 in 19 W/m2
19:15 56.8 °F 52.4 °F 29.49 in NNW 2.0 mph 7.0 mph 85 % 0.00 in 14 W/m2
19:20 56.7 °F 51.9 °F 29.49 in NNW 1.0 mph 6.0 mph 84 % 0.00 in 11 W/m2
19:25 56.5 °F 52.0 °F 29.50 in North 1.0 mph 6.0 mph 85 % 0.00 in 9 W/m2
19:30 56.1 °F 51.7 °F 29.50 in Calm   4.0 mph 85 % 0.00 in 7 W/m2
19:35 55.9 °F 51.5 °F 29.50 in Calm   2.0 mph 85 % 0.00 in 5 W/m2
19:40 55.8 °F 51.3 °F 29.50 in Calm   2.0 mph 85 % 0.00 in 5 W/m2
19:45 55.4 °F 51.3 °F 29.51 in North 1.0 mph 4.0 mph 86 % 0.00 in 0 W/m2
19:50 55.0 °F 50.9 °F 29.51 in NNW 2.0 mph 4.0 mph 86 % 0.00 in 0 W/m2
19:52 54.9 °F 51.1 °F 29.51 in NNW 1.0 mph 4.0 mph 87 % 0.00 in 0 W/m2
20:02 54.3 °F 50.5 °F 29.51 in Calm   3.0 mph 87 % 0.00 in 0 W/m2
20:07 54.1 °F 50.4 °F 29.51 in Calm   2.0 mph 87 % 0.00 in 0 W/m2
20:12 54.0 °F 50.5 °F 29.52 in Calm     88 % 0.00 in 0 W/m2
20:17 53.8 °F 50.3 °F 29.52 in Calm     88 % 0.00 in 0 W/m2
20:22 53.6 °F 50.4 °F 29.52 in Calm   2.0 mph 89 % 0.00 in 0 W/m2
20:27 53.4 °F 50.3 °F 29.52 in Calm   2.0 mph 89 % 0.00 in 0 W/m2
20:32 53.2 °F 50.4 °F 29.52 in Calm   2.0 mph 90 % 0.00 in 0 W/m2
20:37 53.1 °F 50.2 °F 29.52 in Calm   2.0 mph 90 % 0.00 in 0 W/m2
20:42 52.9 °F 50.0 °F 29.53 in Calm     90 % 0.00 in 0 W/m2
20:47 52.5 °F 50.0 °F 29.53 in Calm   2.0 mph 91 % 0.00 in 0 W/m2
20:52 52.3 °F 49.8 °F 29.53 in Calm   2.0 mph 91 % 0.00 in 0 W/m2
20:57 52.2 °F 49.6 °F 29.53 in Calm   2.0 mph 91 % 0.00 in 0 W/m2
21:02 52.0 °F 49.4 °F 29.53 in Calm   2.0 mph 91 % 0.00 in 0 W/m2
21:07 51.6 °F 49.4 °F 29.53 in Calm   2.0 mph 92 % 0.00 in 0 W/m2
21:12 51.4 °F 49.2 °F 29.54 in Calm   1.0 mph 92 % 0.00 in 0 W/m2
21:17 51.3 °F 49.0 °F 29.54 in Calm   1.0 mph 92 % 0.00 in 0 W/m2
21:22 51.1 °F 48.8 °F 29.54 in Calm   1.0 mph 92 % 0.00 in 0 W/m2
21:27 50.9 °F 48.7 °F 29.54 in Calm   3.0 mph 92 % 0.00 in 0 W/m2
21:32 50.9 °F 48.9 °F 29.54 in Calm   3.0 mph 93 % 0.00 in 0 W/m2
21:37 50.7 °F 48.8 °F 29.53 in Calm   1.0 mph 93 % 0.00 in 0 W/m2
21:42 50.5 °F 48.6 °F 29.53 in Calm     93 % 0.00 in 0 W/m2
21:47 50.4 °F 48.4 °F 29.53 in Calm     93 % 0.00 in 0 W/m2
21:52 50.2 °F 48.2 °F 29.54 in Calm     93 % 0.00 in 0 W/m2
21:57 50.0 °F 48.1 °F 29.54 in Calm     93 % 0.00 in 0 W/m2
22:02 49.8 °F 48.2 °F 29.54 in Calm   3.0 mph 94 % 0.00 in 0 W/m2
22:07 49.8 °F 48.2 °F 29.54 in Calm   3.0 mph 94 % 0.00 in 0 W/m2
22:12 49.6 °F 48.0 °F 29.54 in Calm     94 % 0.00 in 0 W/m2
22:17 49.6 °F 48.0 °F 29.55 in Calm     94 % 0.00 in 0 W/m2
22:22 49.5 °F 47.8 °F 29.55 in Calm   3.0 mph 94 % 0.00 in 0 W/m2
22:27 49.5 °F 47.8 °F 29.55 in NNW 1.0 mph 5.0 mph 94 % 0.00 in 0 W/m2
22:32 49.5 °F 48.1 °F 29.54 in NNW 1.0 mph 5.0 mph 95 % 0.00 in 0 W/m2
22:37 49.3 °F 47.6 °F 29.55 in Calm   3.0 mph 94 % 0.00 in 0 W/m2
22:42 49.1 °F 47.4 °F 29.55 in Calm     94 % 0.00 in 0 W/m2
22:47 48.9 °F 47.3 °F 29.55 in Calm     94 % 0.00 in 0 W/m2
22:52 48.7 °F 47.1 °F 29.55 in Calm     94 % 0.00 in 0 W/m2
22:58 48.7 °F 47.1 °F 29.55 in Calm     94 % 0.00 in 0 W/m2
23:03 48.6 °F 46.9 °F 29.56 in Calm   3.0 mph 94 % 0.00 in 0 W/m2
23:07 48.6 °F 47.2 °F 29.56 in NNW 1.0 mph 5.0 mph 95 % 0.00 in 0 W/m2
23:12 48.6 °F 47.2 °F 29.56 in NW 2.0 mph 7.0 mph 95 % 0.00 in 0 W/m2
23:18 48.7 °F 47.4 °F 29.56 in NW 1.0 mph 7.0 mph 95 % 0.00 in 0 W/m2
23:23 48.9 °F 47.6 °F 29.56 in WNW 1.0 mph 5.0 mph 95 % 0.00 in 0 W/m2
23:28 48.7 °F 47.4 °F 29.56 in WNW 1.0 mph 5.0 mph 95 % 0.00 in 0 W/m2
23:33 48.7 °F 47.4 °F 29.56 in Calm   2.0 mph 95 % 0.00 in 0 W/m2
23:38 48.6 °F 47.2 °F 29.56 in Calm   2.0 mph 95 % 0.00 in 0 W/m2
23:42 48.4 °F 47.0 °F 29.56 in Calm   2.0 mph 95 % 0.00 in 0 W/m2
23:47 48.4 °F 47.0 °F 29.56 in Calm   2.0 mph 95 % 0.00 in 0 W/m2
23:52 48.2 °F 46.8 °F 29.56 in Calm   2.0 mph 95 % 0.00 in 0 W/m2
23:57 48.0 °F 46.7 °F 29.56 in Calm     95 % 0.00 in 0 W/m2
Delerius-Weather
Compliments of Weather Underground - 2.25 mb

Data updates at regular intervals.